sensor_id;sensor_type;location;lat;lon;timestamp;P1;durP1;ratioP1;P2;durP2;ratioP2
78774;SDS011;68119;43.398;3.676;2024-02-21T00:01:08;5.75;;;2.60;;
78774;SDS011;68119;43.398;3.676;2024-02-21T00:06:08;6.53;;;2.42;;
78774;SDS011;68119;43.398;3.676;2024-02-21T00:08:39;5.10;;;2.30;;
78774;SDS011;68119;43.398;3.676;2024-02-21T00:11:10;4.82;;;2.25;;
78774;SDS011;68119;43.398;3.676;2024-02-21T00:13:40;5.65;;;2.40;;
78774;SDS011;68119;43.398;3.676;2024-02-21T00:16:08;5.38;;;2.40;;
78774;SDS011;68119;43.398;3.676;2024-02-21T00:18:43;7.13;;;2.45;;
78774;SDS011;68119;43.398;3.676;2024-02-21T00:21:11;4.75;;;2.38;;
78774;SDS011;68119;43.398;3.676;2024-02-21T00:23:43;3.55;;;2.20;;
78774;SDS011;68119;43.398;3.676;2024-02-21T00:26:17;4.82;;;2.45;;
78774;SDS011;68119;43.398;3.676;2024-02-21T00:28:46;5.03;;;2.53;;
78774;SDS011;68119;43.398;3.676;2024-02-21T00:31:15;6.63;;;2.50;;
78774;SDS011;68119;43.398;3.676;2024-02-21T00:33:44;4.25;;;2.50;;
78774;SDS011;68119;43.398;3.676;2024-02-21T00:36:16;5.20;;;2.38;;
78774;SDS011;68119;43.398;3.676;2024-02-21T00:38:45;5.90;;;2.38;;
78774;SDS011;68119;43.398;3.676;2024-02-21T00:41:11;5.00;;;2.33;;
78774;SDS011;68119;43.398;3.676;2024-02-21T00:43:40;5.53;;;2.33;;
78774;SDS011;68119;43.398;3.676;2024-02-21T00:46:12;4.68;;;2.33;;
78774;SDS011;68119;43.398;3.676;2024-02-21T00:48:41;10.45;;;2.45;;
78774;SDS011;68119;43.398;3.676;2024-02-21T00:51:10;6.40;;;2.63;;
78774;SDS011;68119;43.398;3.676;2024-02-21T00:53:39;6.25;;;2.63;;
78774;SDS011;68119;43.398;3.676;2024-02-21T00:56:08;5.65;;;2.85;;
78774;SDS011;68119;43.398;3.676;2024-02-21T00:58:39;5.30;;;2.38;;
78774;SDS011;68119;43.398;3.676;2024-02-21T01:01:06;6.10;;;2.53;;
78774;SDS011;68119;43.398;3.676;2024-02-21T01:03:32;5.90;;;2.70;;
78774;SDS011;68119;43.398;3.676;2024-02-21T01:05:59;6.63;;;2.85;;
78774;SDS011;68119;43.398;3.676;2024-02-21T01:08:27;13.90;;;3.13;;
78774;SDS011;68119;43.398;3.676;2024-02-21T01:10:56;4.28;;;2.53;;
78774;SDS011;68119;43.398;3.676;2024-02-21T01:13:25;6.38;;;2.50;;
78774;SDS011;68119;43.398;3.676;2024-02-21T01:15:54;4.47;;;2.63;;
78774;SDS011;68119;43.398;3.676;2024-02-21T01:18:25;6.47;;;3.00;;
78774;SDS011;68119;43.398;3.676;2024-02-21T01:20:57;4.47;;;2.28;;
78774;SDS011;68119;43.398;3.676;2024-02-21T01:23:26;4.45;;;2.50;;
78774;SDS011;68119;43.398;3.676;2024-02-21T01:25:57;5.40;;;2.42;;
78774;SDS011;68119;43.398;3.676;2024-02-21T01:28:26;4.72;;;2.65;;
78774;SDS011;68119;43.398;3.676;2024-02-21T01:33:24;4.38;;;2.50;;
78774;SDS011;68119;43.398;3.676;2024-02-21T01:35:55;4.10;;;2.53;;
78774;SDS011;68119;43.398;3.676;2024-02-21T01:38:26;6.10;;;2.75;;
78774;SDS011;68119;43.398;3.676;2024-02-21T01:40:54;5.13;;;2.60;;
78774;SDS011;68119;43.398;3.676;2024-02-21T01:43:24;5.13;;;2.30;;
78774;SDS011;68119;43.398;3.676;2024-02-21T01:45:55;4.93;;;2.60;;
78774;SDS011;68119;43.398;3.676;2024-02-21T01:48:22;6.25;;;2.88;;
78774;SDS011;68119;43.398;3.676;2024-02-21T01:50:53;4.72;;;2.47;;
78774;SDS011;68119;43.398;3.676;2024-02-21T01:53:23;5.55;;;2.38;;
78774;SDS011;68119;43.398;3.676;2024-02-21T01:55:55;5.40;;;2.33;;
78774;SDS011;68119;43.398;3.676;2024-02-21T01:58:24;5.10;;;2.70;;
78774;SDS011;68119;43.398;3.676;2024-02-21T02:00:53;4.40;;;2.60;;
78774;SDS011;68119;43.398;3.676;2024-02-21T02:03:22;6.30;;;2.63;;
78774;SDS011;68119;43.398;3.676;2024-02-21T02:05:50;5.28;;;2.60;;
78774;SDS011;68119;43.398;3.676;2024-02-21T02:08:18;5.80;;;2.80;;
78774;SDS011;68119;43.398;3.676;2024-02-21T02:10:48;4.85;;;2.50;;
78774;SDS011;68119;43.398;3.676;2024-02-21T02:13:14;6.30;;;2.97;;
78774;SDS011;68119;43.398;3.676;2024-02-21T02:15:44;5.28;;;2.50;;
78774;SDS011;68119;43.398;3.676;2024-02-21T02:18:14;4.70;;;2.90;;
78774;SDS011;68119;43.398;3.676;2024-02-21T02:20:40;6.28;;;3.00;;
78774;SDS011;68119;43.398;3.676;2024-02-21T02:23:09;6.20;;;3.08;;
78774;SDS011;68119;43.398;3.676;2024-02-21T02:25:39;4.93;;;2.50;;
78774;SDS011;68119;43.398;3.676;2024-02-21T02:28:10;6.50;;;3.05;;
78774;SDS011;68119;43.398;3.676;2024-02-21T02:30:39;7.22;;;2.85;;
78774;SDS011;68119;43.398;3.676;2024-02-21T02:33:08;4.25;;;2.65;;
78774;SDS011;68119;43.398;3.676;2024-02-21T02:35:35;5.38;;;2.72;;
78774;SDS011;68119;43.398;3.676;2024-02-21T02:38:07;6.78;;;2.70;;
78774;SDS011;68119;43.398;3.676;2024-02-21T02:40:37;5.03;;;2.60;;
78774;SDS011;68119;43.398;3.676;2024-02-21T02:43:06;7.50;;;3.00;;
78774;SDS011;68119;43.398;3.676;2024-02-21T02:45:35;6.10;;;2.90;;
78774;SDS011;68119;43.398;3.676;2024-02-21T02:48:04;4.18;;;2.78;;
78774;SDS011;68119;43.398;3.676;2024-02-21T02:50:33;6.85;;;2.72;;
78774;SDS011;68119;43.398;3.676;2024-02-21T02:52:59;6.53;;;2.55;;
78774;SDS011;68119;43.398;3.676;2024-02-21T02:55:30;4.25;;;2.53;;
78774;SDS011;68119;43.398;3.676;2024-02-21T02:58:02;5.75;;;2.60;;
78774;SDS011;68119;43.398;3.676;2024-02-21T03:00:31;5.07;;;2.53;;
78774;SDS011;68119;43.398;3.676;2024-02-21T03:03:03;7.05;;;2.80;;
78774;SDS011;68119;43.398;3.676;2024-02-21T03:05:30;4.97;;;2.67;;
78774;SDS011;68119;43.398;3.676;2024-02-21T03:07:58;4.47;;;2.50;;
78774;SDS011;68119;43.398;3.676;2024-02-21T03:10:35;2.92;;;2.10;;
78774;SDS011;68119;43.398;3.676;2024-02-21T03:13:04;4.90;;;2.25;;
78774;SDS011;68119;43.398;3.676;2024-02-21T03:15:31;5.78;;;2.60;;
78774;SDS011;68119;43.398;3.676;2024-02-21T03:17:57;3.60;;;2.50;;
78774;SDS011;68119;43.398;3.676;2024-02-21T03:20:28;5.55;;;2.60;;
78774;SDS011;68119;43.398;3.676;2024-02-21T03:22:57;5.38;;;2.40;;
78774;SDS011;68119;43.398;3.676;2024-02-21T03:25:29;4.30;;;2.47;;
78774;SDS011;68119;43.398;3.676;2024-02-21T03:27:58;6.38;;;2.50;;
78774;SDS011;68119;43.398;3.676;2024-02-21T03:30:29;6.45;;;2.88;;
78774;SDS011;68119;43.398;3.676;2024-02-21T03:35:27;4.68;;;2.30;;
78774;SDS011;68119;43.398;3.676;2024-02-21T03:37:53;5.22;;;2.20;;
78774;SDS011;68119;43.398;3.676;2024-02-21T03:40:22;4.93;;;2.47;;
78774;SDS011;68119;43.398;3.676;2024-02-21T03:42:48;3.97;;;2.40;;
78774;SDS011;68119;43.398;3.676;2024-02-21T03:45:17;3.20;;;2.22;;
78774;SDS011;68119;43.398;3.676;2024-02-21T03:47:46;4.10;;;2.30;;
78774;SDS011;68119;43.398;3.676;2024-02-21T03:50:15;5.50;;;2.50;;
78774;SDS011;68119;43.398;3.676;2024-02-21T03:52:42;4.78;;;2.40;;
78774;SDS011;68119;43.398;3.676;2024-02-21T03:55:11;4.43;;;2.72;;
78774;SDS011;68119;43.398;3.676;2024-02-21T03:57:37;3.88;;;2.20;;
78774;SDS011;68119;43.398;3.676;2024-02-21T04:00:04;3.92;;;2.10;;
78774;SDS011;68119;43.398;3.676;2024-02-21T04:02:38;3.75;;;2.38;;
78774;SDS011;68119;43.398;3.676;2024-02-21T04:05:04;3.95;;;2.20;;
78774;SDS011;68119;43.398;3.676;2024-02-21T04:07:38;3.17;;;2.33;;
78774;SDS011;68119;43.398;3.676;2024-02-21T04:10:05;5.28;;;2.60;;
78774;SDS011;68119;43.398;3.676;2024-02-21T04:12:31;4.72;;;2.63;;
78774;SDS011;68119;43.398;3.676;2024-02-21T04:15:00;5.82;;;2.75;;
78774;SDS011;68119;43.398;3.676;2024-02-21T04:17:29;5.85;;;2.78;;
78774;SDS011;68119;43.398;3.676;2024-02-21T04:20:04;8.10;;;3.45;;
78774;SDS011;68119;43.398;3.676;2024-02-21T04:22:31;6.95;;;3.35;;
78774;SDS011;68119;43.398;3.676;2024-02-21T04:25:00;6.25;;;3.10;;
78774;SDS011;68119;43.398;3.676;2024-02-21T04:27:29;7.32;;;3.60;;
78774;SDS011;68119;43.398;3.676;2024-02-21T04:30:00;5.75;;;3.20;;
78774;SDS011;68119;43.398;3.676;2024-02-21T04:34:58;5.35;;;2.78;;
78774;SDS011;68119;43.398;3.676;2024-02-21T04:37:24;5.35;;;2.60;;
78774;SDS011;68119;43.398;3.676;2024-02-21T04:39:50;4.45;;;2.47;;
78774;SDS011;68119;43.398;3.676;2024-02-21T04:42:19;5.80;;;2.70;;
78774;SDS011;68119;43.398;3.676;2024-02-21T04:44:48;4.82;;;2.20;;
78774;SDS011;68119;43.398;3.676;2024-02-21T04:47:17;3.75;;;2.50;;
78774;SDS011;68119;43.398;3.676;2024-02-21T04:49:49;5.05;;;2.30;;
78774;SDS011;68119;43.398;3.676;2024-02-21T04:52:18;4.18;;;2.13;;
78774;SDS011;68119;43.398;3.676;2024-02-21T04:54:49;4.90;;;2.40;;
78774;SDS011;68119;43.398;3.676;2024-02-21T04:57:20;5.05;;;2.35;;
78774;SDS011;68119;43.398;3.676;2024-02-21T04:59:46;4.03;;;2.13;;
78774;SDS011;68119;43.398;3.676;2024-02-21T05:02:15;3.85;;;2.20;;
78774;SDS011;68119;43.398;3.676;2024-02-21T05:04:44;5.57;;;2.58;;
78774;SDS011;68119;43.398;3.676;2024-02-21T05:07:10;3.55;;;1.98;;
78774;SDS011;68119;43.398;3.676;2024-02-21T05:09:37;5.35;;;2.30;;
78774;SDS011;68119;43.398;3.676;2024-02-21T05:12:04;4.47;;;2.08;;
78774;SDS011;68119;43.398;3.676;2024-02-21T05:14:32;3.47;;;1.77;;
78774;SDS011;68119;43.398;3.676;2024-02-21T05:17:04;4.70;;;1.80;;
78774;SDS011;68119;43.398;3.676;2024-02-21T05:19:36;4.70;;;2.10;;
78774;SDS011;68119;43.398;3.676;2024-02-21T05:22:03;4.85;;;1.90;;
78774;SDS011;68119;43.398;3.676;2024-02-21T05:24:32;3.38;;;1.80;;
78774;SDS011;68119;43.398;3.676;2024-02-21T05:27:04;3.35;;;1.85;;
78774;SDS011;68119;43.398;3.676;2024-02-21T05:29:36;3.60;;;2.20;;
78774;SDS011;68119;43.398;3.676;2024-02-21T05:32:02;4.28;;;2.13;;
78774;SDS011;68119;43.398;3.676;2024-02-21T05:34:29;3.42;;;1.70;;
78774;SDS011;68119;43.398;3.676;2024-02-21T05:36:58;3.80;;;1.88;;
78774;SDS011;68119;43.398;3.676;2024-02-21T05:39:26;3.33;;;1.90;;
78774;SDS011;68119;43.398;3.676;2024-02-21T05:41:54;3.38;;;1.70;;
78774;SDS011;68119;43.398;3.676;2024-02-21T05:44:23;4.60;;;1.90;;
78774;SDS011;68119;43.398;3.676;2024-02-21T05:46:54;2.25;;;1.75;;
78774;SDS011;68119;43.398;3.676;2024-02-21T05:49:21;2.63;;;1.90;;
78774;SDS011;68119;43.398;3.676;2024-02-21T05:51:47;4.80;;;2.45;;
78774;SDS011;68119;43.398;3.676;2024-02-21T05:54:18;4.55;;;2.83;;
78774;SDS011;68119;43.398;3.676;2024-02-21T05:56:49;5.70;;;2.50;;
78774;SDS011;68119;43.398;3.676;2024-02-21T05:59:19;5.28;;;2.67;;
78774;SDS011;68119;43.398;3.676;2024-02-21T06:01:54;4.50;;;2.63;;
78774;SDS011;68119;43.398;3.676;2024-02-21T06:04:23;4.35;;;2.45;;
78774;SDS011;68119;43.398;3.676;2024-02-21T06:06:54;6.10;;;2.83;;
78774;SDS011;68119;43.398;3.676;2024-02-21T06:09:21;4.35;;;3.00;;
78774;SDS011;68119;43.398;3.676;2024-02-21T06:11:47;3.95;;;2.65;;
78774;SDS011;68119;43.398;3.676;2024-02-21T06:14:16;7.95;;;3.13;;
78774;SDS011;68119;43.398;3.676;2024-02-21T06:16:48;5.68;;;3.10;;
78774;SDS011;68119;43.398;3.676;2024-02-21T06:19:14;6.88;;;3.00;;
78774;SDS011;68119;43.398;3.676;2024-02-21T06:21:41;4.82;;;2.50;;
78774;SDS011;68119;43.398;3.676;2024-02-21T06:24:07;5.93;;;2.75;;
78774;SDS011;68119;43.398;3.676;2024-02-21T06:26:36;5.25;;;2.58;;
78774;SDS011;68119;43.398;3.676;2024-02-21T06:29:08;3.92;;;2.50;;
78774;SDS011;68119;43.398;3.676;2024-02-21T06:31:35;5.80;;;2.90;;
78774;SDS011;68119;43.398;3.676;2024-02-21T06:34:04;5.50;;;3.15;;
78774;SDS011;68119;43.398;3.676;2024-02-21T06:36:30;5.97;;;3.00;;
78774;SDS011;68119;43.398;3.676;2024-02-21T06:39:02;5.05;;;2.65;;
78774;SDS011;68119;43.398;3.676;2024-02-21T06:41:32;6.97;;;3.20;;
78774;SDS011;68119;43.398;3.676;2024-02-21T06:44:01;6.80;;;2.72;;
78774;SDS011;68119;43.398;3.676;2024-02-21T06:46:30;4.78;;;2.70;;
78774;SDS011;68119;43.398;3.676;2024-02-21T06:49:02;6.28;;;2.78;;
78774;SDS011;68119;43.398;3.676;2024-02-21T06:51:42;4.38;;;2.55;;
78774;SDS011;68119;43.398;3.676;2024-02-21T06:54:08;5.15;;;2.38;;
78774;SDS011;68119;43.398;3.676;2024-02-21T06:56:42;4.03;;;2.42;;
78774;SDS011;68119;43.398;3.676;2024-02-21T06:59:08;4.40;;;2.33;;
78774;SDS011;68119;43.398;3.676;2024-02-21T07:01:37;4.05;;;2.25;;
78774;SDS011;68119;43.398;3.676;2024-02-21T07:04:04;4.03;;;2.13;;
78774;SDS011;68119;43.398;3.676;2024-02-21T07:06:40;11.75;;;5.25;;
78774;SDS011;68119;43.398;3.676;2024-02-21T07:09:12;8.73;;;3.20;;
78774;SDS011;68119;43.398;3.676;2024-02-21T07:11:45;5.75;;;3.30;;
78774;SDS011;68119;43.398;3.676;2024-02-21T07:14:14;6.68;;;3.00;;
78774;SDS011;68119;43.398;3.676;2024-02-21T07:16:42;8.27;;;3.10;;
78774;SDS011;68119;43.398;3.676;2024-02-21T07:19:09;7.70;;;2.60;;
78774;SDS011;68119;43.398;3.676;2024-02-21T07:21:38;4.43;;;2.70;;
78774;SDS011;68119;43.398;3.676;2024-02-21T07:24:14;5.25;;;3.05;;
78774;SDS011;68119;43.398;3.676;2024-02-21T07:26:41;7.40;;;3.10;;
78774;SDS011;68119;43.398;3.676;2024-02-21T07:29:11;5.88;;;2.80;;
78774;SDS011;68119;43.398;3.676;2024-02-21T07:31:43;6.75;;;2.92;;
78774;SDS011;68119;43.398;3.676;2024-02-21T07:36:43;5.95;;;3.00;;
78774;SDS011;68119;43.398;3.676;2024-02-21T07:39:10;8.27;;;3.70;;
78774;SDS011;68119;43.398;3.676;2024-02-21T07:41:40;6.82;;;3.22;;
78774;SDS011;68119;43.398;3.676;2024-02-21T07:46:34;6.53;;;2.50;;
78774;SDS011;68119;43.398;3.676;2024-02-21T07:49:01;7.25;;;3.17;;
78774;SDS011;68119;43.398;3.676;2024-02-21T07:51:32;5.28;;;2.97;;
78774;SDS011;68119;43.398;3.676;2024-02-21T07:54:03;6.50;;;2.70;;
78774;SDS011;68119;43.398;3.676;2024-02-21T07:56:32;5.45;;;3.03;;
78774;SDS011;68119;43.398;3.676;2024-02-21T07:59:05;6.32;;;3.00;;
78774;SDS011;68119;43.398;3.676;2024-02-21T08:01:33;5.15;;;2.50;;
78774;SDS011;68119;43.398;3.676;2024-02-21T08:04:00;5.07;;;2.60;;
78774;SDS011;68119;43.398;3.676;2024-02-21T08:06:30;5.53;;;2.40;;
78774;SDS011;68119;43.398;3.676;2024-02-21T08:08:56;10.52;;;3.22;;
78774;SDS011;68119;43.398;3.676;2024-02-21T08:11:23;5.22;;;2.63;;
78774;SDS011;68119;43.398;3.676;2024-02-21T08:13:51;6.38;;;2.70;;
78774;SDS011;68119;43.398;3.676;2024-02-21T08:16:23;5.70;;;2.65;;
78774;SDS011;68119;43.398;3.676;2024-02-21T08:18:54;6.47;;;3.00;;
78774;SDS011;68119;43.398;3.676;2024-02-21T08:21:24;5.47;;;2.30;;
78774;SDS011;68119;43.398;3.676;2024-02-21T08:23:50;4.57;;;2.33;;
78774;SDS011;68119;43.398;3.676;2024-02-21T08:26:20;6.63;;;2.40;;
78774;SDS011;68119;43.398;3.676;2024-02-21T08:28:49;3.05;;;2.00;;
78774;SDS011;68119;43.398;3.676;2024-02-21T08:31:21;4.38;;;2.40;;
78774;SDS011;68119;43.398;3.676;2024-02-21T08:33:49;4.80;;;2.10;;
78774;SDS011;68119;43.398;3.676;2024-02-21T08:36:19;3.17;;;1.65;;
78774;SDS011;68119;43.398;3.676;2024-02-21T08:41:13;3.80;;;2.28;;
78774;SDS011;68119;43.398;3.676;2024-02-21T08:43:43;4.15;;;2.22;;
78774;SDS011;68119;43.398;3.676;2024-02-21T08:46:15;5.68;;;2.55;;
78774;SDS011;68119;43.398;3.676;2024-02-21T08:51:13;4.53;;;2.20;;
78774;SDS011;68119;43.398;3.676;2024-02-21T08:53:46;4.82;;;2.30;;
78774;SDS011;68119;43.398;3.676;2024-02-21T08:56:15;5.68;;;2.47;;
78774;SDS011;68119;43.398;3.676;2024-02-21T08:58:43;5.15;;;2.45;;
78774;SDS011;68119;43.398;3.676;2024-02-21T09:01:11;4.22;;;2.15;;
78774;SDS011;68119;43.398;3.676;2024-02-21T09:03:40;4.13;;;2.40;;
78774;SDS011;68119;43.398;3.676;2024-02-21T09:06:09;4.07;;;2.30;;
78774;SDS011;68119;43.398;3.676;2024-02-21T09:08:38;4.82;;;2.45;;
78774;SDS011;68119;43.398;3.676;2024-02-21T09:11:06;5.78;;;2.70;;
78774;SDS011;68119;43.398;3.676;2024-02-21T09:13:35;4.90;;;2.47;;
78774;SDS011;68119;43.398;3.676;2024-02-21T09:16:01;7.05;;;2.60;;
78774;SDS011;68119;43.398;3.676;2024-02-21T09:18:31;3.63;;;2.33;;
78774;SDS011;68119;43.398;3.676;2024-02-21T09:21:02;4.85;;;2.40;;
78774;SDS011;68119;43.398;3.676;2024-02-21T09:23:29;4.80;;;2.33;;
78774;SDS011;68119;43.398;3.676;2024-02-21T09:25:57;5.10;;;2.42;;
78774;SDS011;68119;43.398;3.676;2024-02-21T09:28:25;6.40;;;2.40;;
78774;SDS011;68119;43.398;3.676;2024-02-21T09:30:55;4.53;;;1.92;;
78774;SDS011;68119;43.398;3.676;2024-02-21T09:33:24;4.72;;;2.05;;
78774;SDS011;68119;43.398;3.676;2024-02-21T09:35:53;4.93;;;2.15;;
78774;SDS011;68119;43.398;3.676;2024-02-21T09:38:24;3.45;;;1.80;;
78774;SDS011;68119;43.398;3.676;2024-02-21T09:40:58;3.53;;;1.92;;
78774;SDS011;68119;43.398;3.676;2024-02-21T09:43:25;3.88;;;2.05;;
78774;SDS011;68119;43.398;3.676;2024-02-21T09:45:55;8.80;;;2.40;;
78774;SDS011;68119;43.398;3.676;2024-02-21T09:51:02;4.72;;;1.95;;
78774;SDS011;68119;43.398;3.676;2024-02-21T09:53:29;3.50;;;2.00;;
78774;SDS011;68119;43.398;3.676;2024-02-21T09:55:56;4.35;;;2.20;;
78774;SDS011;68119;43.398;3.676;2024-02-21T09:58:25;3.75;;;2.20;;
78774;SDS011;68119;43.398;3.676;2024-02-21T10:00:53;3.55;;;2.03;;
78774;SDS011;68119;43.398;3.676;2024-02-21T10:03:26;6.05;;;2.10;;
78774;SDS011;68119;43.398;3.676;2024-02-21T10:05:55;4.28;;;2.20;;
78774;SDS011;68119;43.398;3.676;2024-02-21T10:08:21;3.78;;;1.95;;
78774;SDS011;68119;43.398;3.676;2024-02-21T10:10:50;6.82;;;2.15;;
78774;SDS011;68119;43.398;3.676;2024-02-21T10:13:29;7.40;;;2.50;;
78774;SDS011;68119;43.398;3.676;2024-02-21T10:16:10;4.95;;;2.53;;
78774;SDS011;68119;43.398;3.676;2024-02-21T10:18:42;4.00;;;2.22;;
78774;SDS011;68119;43.398;3.676;2024-02-21T10:21:10;4.22;;;2.28;;
78774;SDS011;68119;43.398;3.676;2024-02-21T10:23:55;4.95;;;2.40;;
78774;SDS011;68119;43.398;3.676;2024-02-21T10:26:26;5.22;;;2.50;;
78774;SDS011;68119;43.398;3.676;2024-02-21T10:28:55;4.35;;;2.38;;
78774;SDS011;68119;43.398;3.676;2024-02-21T10:34:00;3.40;;;2.05;;
78774;SDS011;68119;43.398;3.676;2024-02-21T10:36:30;4.97;;;2.20;;
78774;SDS011;68119;43.398;3.676;2024-02-21T10:39:02;5.38;;;2.47;;
78774;SDS011;68119;43.398;3.676;2024-02-21T10:41:28;4.95;;;2.47;;
78774;SDS011;68119;43.398;3.676;2024-02-21T10:44:01;6.13;;;2.40;;
78774;SDS011;68119;43.398;3.676;2024-02-21T10:46:33;4.45;;;2.20;;
78774;SDS011;68119;43.398;3.676;2024-02-21T10:51:30;8.85;;;3.03;;
78774;SDS011;68119;43.398;3.676;2024-02-21T10:56:44;5.55;;;2.60;;
78774;SDS011;68119;43.398;3.676;2024-02-21T10:59:11;7.63;;;2.72;;
78774;SDS011;68119;43.398;3.676;2024-02-21T11:01:42;5.15;;;2.45;;
78774;SDS011;68119;43.398;3.676;2024-02-21T11:04:08;7.50;;;3.25;;
78774;SDS011;68119;43.398;3.676;2024-02-21T11:06:38;5.35;;;2.67;;
78774;SDS011;68119;43.398;3.676;2024-02-21T11:09:11;5.17;;;2.40;;
78774;SDS011;68119;43.398;3.676;2024-02-21T11:11:38;6.55;;;2.85;;
78774;SDS011;68119;43.398;3.676;2024-02-21T11:14:06;6.05;;;2.63;;
78774;SDS011;68119;43.398;3.676;2024-02-21T11:16:38;4.68;;;2.38;;
78774;SDS011;68119;43.398;3.676;2024-02-21T11:19:26;5.15;;;2.70;;
78774;SDS011;68119;43.398;3.676;2024-02-21T11:21:54;4.88;;;2.42;;
78774;SDS011;68119;43.398;3.676;2024-02-21T11:24:30;6.90;;;2.45;;
78774;SDS011;68119;43.398;3.676;2024-02-21T11:29:43;6.57;;;2.53;;
78774;SDS011;68119;43.398;3.676;2024-02-21T11:32:17;7.97;;;2.90;;
78774;SDS011;68119;43.398;3.676;2024-02-21T11:34:56;7.13;;;2.65;;
78774;SDS011;68119;43.398;3.676;2024-02-21T11:37:26;6.75;;;2.70;;
78774;SDS011;68119;43.398;3.676;2024-02-21T11:39:53;6.40;;;3.30;;
78774;SDS011;68119;43.398;3.676;2024-02-21T11:42:24;9.50;;;4.50;;
78774;SDS011;68119;43.398;3.676;2024-02-21T11:44:51;11.65;;;4.60;;
78774;SDS011;68119;43.398;3.676;2024-02-21T11:47:17;10.98;;;5.28;;
78774;SDS011;68119;43.398;3.676;2024-02-21T11:49:47;13.55;;;5.93;;
78774;SDS011;68119;43.398;3.676;2024-02-21T11:52:15;13.35;;;5.75;;
78774;SDS011;68119;43.398;3.676;2024-02-21T11:54:44;13.70;;;6.40;;
78774;SDS011;68119;43.398;3.676;2024-02-21T11:57:11;16.05;;;6.20;;
78774;SDS011;68119;43.398;3.676;2024-02-21T11:59:45;10.60;;;5.53;;
78774;SDS011;68119;43.398;3.676;2024-02-21T12:02:12;15.35;;;6.30;;
78774;SDS011;68119;43.398;3.676;2024-02-21T12:04:38;18.50;;;8.90;;
78774;SDS011;68119;43.398;3.676;2024-02-21T12:07:07;18.88;;;8.43;;
78774;SDS011;68119;43.398;3.676;2024-02-21T12:09:34;15.65;;;8.00;;
78774;SDS011;68119;43.398;3.676;2024-02-21T12:12:04;15.57;;;7.70;;
78774;SDS011;68119;43.398;3.676;2024-02-21T12:14:33;15.32;;;8.88;;
78774;SDS011;68119;43.398;3.676;2024-02-21T12:17:03;14.18;;;8.20;;
78774;SDS011;68119;43.398;3.676;2024-02-21T12:19:30;18.67;;;7.63;;
78774;SDS011;68119;43.398;3.676;2024-02-21T12:21:58;10.70;;;5.65;;
78774;SDS011;68119;43.398;3.676;2024-02-21T12:24:31;10.52;;;5.60;;
78774;SDS011;68119;43.398;3.676;2024-02-21T12:27:00;10.68;;;5.28;;
78774;SDS011;68119;43.398;3.676;2024-02-21T12:29:30;9.60;;;4.67;;
78774;SDS011;68119;43.398;3.676;2024-02-21T12:31:57;11.18;;;5.65;;
78774;SDS011;68119;43.398;3.676;2024-02-21T12:34:31;9.35;;;5.07;;
78774;SDS011;68119;43.398;3.676;2024-02-21T12:37:01;12.55;;;5.75;;
78774;SDS011;68119;43.398;3.676;2024-02-21T12:39:29;11.05;;;5.57;;
78774;SDS011;68119;43.398;3.676;2024-02-21T12:41:57;10.05;;;5.25;;
78774;SDS011;68119;43.398;3.676;2024-02-21T12:44:23;9.27;;;4.75;;
78774;SDS011;68119;43.398;3.676;2024-02-21T12:46:49;7.95;;;3.97;;
78774;SDS011;68119;43.398;3.676;2024-02-21T12:49:19;9.57;;;4.47;;
78774;SDS011;68119;43.398;3.676;2024-02-21T12:51:45;6.68;;;3.30;;
78774;SDS011;68119;43.398;3.676;2024-02-21T12:54:17;7.13;;;3.40;;
78774;SDS011;68119;43.398;3.676;2024-02-21T12:56:45;5.88;;;3.00;;
78774;SDS011;68119;43.398;3.676;2024-02-21T12:59:14;5.40;;;2.80;;
78774;SDS011;68119;43.398;3.676;2024-02-21T13:01:44;5.13;;;2.70;;
78774;SDS011;68119;43.398;3.676;2024-02-21T13:04:17;5.68;;;2.70;;
78774;SDS011;68119;43.398;3.676;2024-02-21T13:06:44;6.13;;;2.67;;
78774;SDS011;68119;43.398;3.676;2024-02-21T13:09:10;7.25;;;2.70;;
78774;SDS011;68119;43.398;3.676;2024-02-21T13:11:37;5.07;;;2.50;;
78774;SDS011;68119;43.398;3.676;2024-02-21T13:14:03;5.68;;;2.50;;
78774;SDS011;68119;43.398;3.676;2024-02-21T13:16:30;4.65;;;2.40;;
78774;SDS011;68119;43.398;3.676;2024-02-21T13:18:56;5.15;;;2.33;;
78774;SDS011;68119;43.398;3.676;2024-02-21T13:21:25;7.05;;;2.60;;
78774;SDS011;68119;43.398;3.676;2024-02-21T13:23:57;5.20;;;2.55;;
78774;SDS011;68119;43.398;3.676;2024-02-21T13:26:24;7.78;;;2.95;;
78774;SDS011;68119;43.398;3.676;2024-02-21T13:28:55;6.20;;;2.45;;
78774;SDS011;68119;43.398;3.676;2024-02-21T13:31:22;7.07;;;2.38;;
78774;SDS011;68119;43.398;3.676;2024-02-21T13:33:50;3.85;;;2.30;;
78774;SDS011;68119;43.398;3.676;2024-02-21T13:36:19;6.25;;;2.38;;
78774;SDS011;68119;43.398;3.676;2024-02-21T13:38:45;7.20;;;3.05;;
78774;SDS011;68119;43.398;3.676;2024-02-21T13:41:14;5.70;;;2.28;;
78774;SDS011;68119;43.398;3.676;2024-02-21T13:43:45;5.05;;;2.20;;
78774;SDS011;68119;43.398;3.676;2024-02-21T13:46:11;8.20;;;2.78;;
78774;SDS011;68119;43.398;3.676;2024-02-21T13:48:43;5.57;;;2.50;;
78774;SDS011;68119;43.398;3.676;2024-02-21T13:51:10;5.13;;;3.03;;
78774;SDS011;68119;43.398;3.676;2024-02-21T13:53:37;5.10;;;2.50;;
78774;SDS011;68119;43.398;3.676;2024-02-21T13:56:13;6.28;;;2.83;;
78774;SDS011;68119;43.398;3.676;2024-02-21T13:58:39;5.85;;;2.70;;
78774;SDS011;68119;43.398;3.676;2024-02-21T14:01:19;4.95;;;2.30;;
78774;SDS011;68119;43.398;3.676;2024-02-21T14:03:48;4.78;;;2.50;;
78774;SDS011;68119;43.398;3.676;2024-02-21T14:06:21;5.78;;;2.85;;
78774;SDS011;68119;43.398;3.676;2024-02-21T14:08:53;5.22;;;2.67;;
78774;SDS011;68119;43.398;3.676;2024-02-21T14:11:20;5.72;;;2.92;;
78774;SDS011;68119;43.398;3.676;2024-02-21T14:13:49;5.95;;;2.90;;
78774;SDS011;68119;43.398;3.676;2024-02-21T14:16:16;5.65;;;3.35;;
78774;SDS011;68119;43.398;3.676;2024-02-21T14:18:42;8.55;;;2.97;;
78774;SDS011;68119;43.398;3.676;2024-02-21T14:21:11;4.63;;;2.97;;
78774;SDS011;68119;43.398;3.676;2024-02-21T14:23:40;5.30;;;2.95;;
78774;SDS011;68119;43.398;3.676;2024-02-21T14:26:06;11.30;;;3.63;;
78774;SDS011;68119;43.398;3.676;2024-02-21T14:28:35;5.40;;;3.17;;
78774;SDS011;68119;43.398;3.676;2024-02-21T14:31:02;6.93;;;3.55;;
78774;SDS011;68119;43.398;3.676;2024-02-21T14:33:31;6.22;;;2.95;;
78774;SDS011;68119;43.398;3.676;2024-02-21T14:36:00;5.95;;;3.30;;
78774;SDS011;68119;43.398;3.676;2024-02-21T14:41:12;6.07;;;3.10;;
78774;SDS011;68119;43.398;3.676;2024-02-21T14:43:38;6.90;;;3.55;;
78774;SDS011;68119;43.398;3.676;2024-02-21T14:46:08;5.50;;;3.05;;
78774;SDS011;68119;43.398;3.676;2024-02-21T14:48:35;6.78;;;3.25;;
78774;SDS011;68119;43.398;3.676;2024-02-21T14:51:01;9.40;;;3.65;;
78774;SDS011;68119;43.398;3.676;2024-02-21T14:53:28;8.80;;;3.55;;
78774;SDS011;68119;43.398;3.676;2024-02-21T14:55:59;8.25;;;3.45;;
78774;SDS011;68119;43.398;3.676;2024-02-21T14:58:28;5.65;;;3.38;;
78774;SDS011;68119;43.398;3.676;2024-02-21T15:01:07;7.53;;;3.60;;
78774;SDS011;68119;43.398;3.676;2024-02-21T15:03:38;8.00;;;3.50;;
78774;SDS011;68119;43.398;3.676;2024-02-21T15:06:04;9.20;;;3.80;;
78774;SDS011;68119;43.398;3.676;2024-02-21T15:08:31;8.70;;;3.63;;
78774;SDS011;68119;43.398;3.676;2024-02-21T15:11:01;6.87;;;3.30;;
78774;SDS011;68119;43.398;3.676;2024-02-21T15:13:28;8.88;;;3.80;;
78774;SDS011;68119;43.398;3.676;2024-02-21T15:15:58;6.10;;;3.58;;
78774;SDS011;68119;43.398;3.676;2024-02-21T15:18:24;6.78;;;3.10;;
78774;SDS011;68119;43.398;3.676;2024-02-21T15:20:56;4.95;;;2.92;;
78774;SDS011;68119;43.398;3.676;2024-02-21T15:23:22;7.50;;;3.25;;
78774;SDS011;68119;43.398;3.676;2024-02-21T15:25:52;5.13;;;3.03;;
78774;SDS011;68119;43.398;3.676;2024-02-21T15:28:27;5.63;;;3.17;;
78774;SDS011;68119;43.398;3.676;2024-02-21T15:30:54;4.88;;;2.80;;
78774;SDS011;68119;43.398;3.676;2024-02-21T15:33:21;7.53;;;3.22;;